Página principal
METAR-TAF:

METAR-TAF

Aeroportos :

Aeroporto Internacional Harbin Taiping

Harbin, China

latitude: 45-45N, longitude: 126-46E, altura: 143 m

Observação actual do tempo

O boletim foi feito há 37 minutos, às 02:00 UTC
Vento 8 kt de nor-noroeste, variando entre oes-noroeste e nordeste
Temperatura 8°C
Humidade 19%
Pressão 1021 hPa
Visibilidade 10 km ou mais
sem nuvens abaixo de 1500 metros e sem cumulonimbus

METAR: ZYHB 190200Z 34004MPS 290V040 CAVOK 08/M14 Q1021 NOSIG

Hora: 10:37 (02:37 UTC)

Previsão

O boletim foi feito há 7 horas e 28 minutos, às 19:09 UTC
Previsão válida de 19 às 00 UTC a 19 às 24 UTC
Vento 8 kt de noroeste
Visibilidade: 6000 m
Nuvens dispersasa uma altura de 3000 ft

TAF: ZYHB 181909Z 1900/1924 32004MPS 6000 SCT030 TX12/1906Z TN01/1921Z

Observações e previsões do tempo de mais de 4000 aeroportos (mensagens METAR e TAF).

As estações disponíveis são os pontos amarelos e vermelhos sobre o mapa.

Mova o rato sobre o mapa para ver o nome da estação.

Depois clique no ponto para visualizar as observações e previsões meteorológicas.

Para alterar o mapa : clique nos botões verdes com uma cruz preta para aumentar o zoom; no botão verde com uma pitada de zoom; ou nas setas verdes para mapas adjacentes.


METAR-TAF: